Página principal
METAR-TAF:

METAR-TAF

Aeroportos :

Lampedusa, Itália

latitude: 35-30N, longitude: 012-36E, altura: 16 m

Observação actual do tempo

O boletim foi feito há 25 minutos, às 16:50 UTC
Vento 23 kt de nor-noroeste
Temperatura 27°C
Humidade 66%
Pressão 1011 hPa
Visibilidade 10 km ou mais
sem nuvens abaixo de 1500 metros e sem cumulonimbus

METAR: LICD 231650Z 34023KT CAVOK 27/20 Q1011

Hora: 19:15 (17:15 UTC)

Previsão

O boletim foi feito há 6 horas e 15 minutos, às 11:00 UTC
Previsão válida de 23 às 12 UTC a 24 às 12 UTC
Vento 20 kt de nor-noroeste com rajadas de 32 kt
Visibilidade 10 km ou mais
sem nuvens abaixo de 1500 metros e sem cumulonimbus

TAF: LICD 231100Z 2312/2412 34020G32KT CAVOK

Observações e previsões do tempo de mais de 4000 aeroportos (mensagens METAR e TAF).

As estações disponíveis são os pontos amarelos e vermelhos sobre o mapa.

Mova o rato sobre o mapa para ver o nome da estação.

Depois clique no ponto para visualizar as observações e previsões meteorológicas.

Para alterar o mapa : clique nos botões verdes com uma cruz preta para aumentar o zoom; no botão verde com uma pitada de zoom; ou nas setas verdes para mapas adjacentes.


METAR-TAF: